Qu Xian, China
Current Conditions -  °F | °C
As of 11:00 PM on Friday 31 Oct 2014 (Local Time) from ZSHC Reporting Station
Broken Clouds Broken Clouds  
Wind Chill: 66°   Ceiling: 2000
Heat Index: 66°   Visibility: 4mi
Dew Point: 59°   Wind: 4mph
Humidity: 78%   Direction: NA
Pressure: 30.03"   Gusts: NA
Location:  28.97°N, 118.87°E
Report Text: ZSHC 311500Z VRB02MPS 6000 BKN020 19/15 Q1017 NOSIG
Loading
Personal Weather Stations






























Interactive Weather Map
Tropical Storm Tracking
New forecast layout! Learn more

10-Day Weather Forecast

Advertisements
Track Severe Weather on mobile